createdAt,value
2023-01-07T00:00:30.960Z,33.11
2023-01-07T00:05:32.354Z,33.11
2023-01-07T00:10:34.616Z,33.29
2023-01-07T00:15:36.008Z,33.14
2023-01-07T00:20:37.423Z,33.28
2023-01-07T00:25:38.821Z,33.05
2023-01-07T00:30:40.202Z,33.13
2023-01-07T00:35:44.557Z,33.22
2023-01-07T00:40:45.930Z,33.42
2023-01-07T00:45:47.316Z,33.53
2023-01-07T00:50:48.800Z,33.54
2023-01-07T00:55:52.805Z,33.34
2023-01-07T01:00:56.151Z,33.37
2023-01-07T01:06:04.821Z,33.62
2023-01-07T01:11:06.853Z,33.74
2023-01-07T01:16:13.193Z,33.58
2023-01-07T01:21:15.700Z,33.64
2023-01-07T01:26:17.146Z,33.68
2023-01-07T01:31:18.539Z,33.72
2023-01-07T01:36:19.943Z,33.97
2023-01-07T01:41:21.379Z,34.19
2023-01-07T01:46:38.291Z,34.45
2023-01-07T01:51:40.835Z,34.17
2023-01-07T01:56:43.491Z,33.85
2023-01-07T02:01:45.036Z,33.91
2023-01-07T02:06:53.391Z,34.10
2023-01-07T02:11:54.656Z,34.28
2023-01-07T02:17:19.226Z,34.38
2023-01-07T02:22:47.215Z,34.34
2023-01-07T02:28:10.257Z,34.30
2023-01-07T02:33:21.228Z,34.01
2023-01-07T02:39:02.826Z,33.85
2023-01-07T02:44:12.719Z,34.11
2023-01-07T02:49:15.417Z,34.28
2023-01-07T02:54:22.126Z,34.02
2023-01-07T02:59:56.868Z,33.75
2023-01-07T03:05:04.886Z,33.77
2023-01-07T03:10:27.510Z,33.82
2023-01-07T03:15:53.294Z,34.01
2023-01-07T03:20:57.710Z,33.82
2023-01-07T03:26:01.135Z,33.46
2023-01-07T03:31:02.514Z,33.59
2023-01-07T03:36:03.975Z,33.62
2023-01-07T03:41:05.415Z,33.79
2023-01-07T03:46:06.851Z,33.47
2023-01-07T03:51:08.299Z,33.18
2023-01-07T03:56:09.694Z,33.20
2023-01-07T04:01:11.213Z,33.35
2023-01-07T04:06:12.632Z,33.40
2023-01-07T04:11:13.998Z,33.10
2023-01-07T04:16:15.478Z,32.98
2023-01-07T04:21:16.870Z,32.99
2023-01-07T04:26:18.278Z,32.90
2023-01-07T04:31:19.655Z,32.91
2023-01-07T04:36:21.054Z,32.80
2023-01-07T04:41:22.455Z,32.60
2023-01-07T04:46:25.075Z,32.45
2023-01-07T04:51:26.491Z,32.74
2023-01-07T04:56:27.924Z,32.80
2023-01-07T05:01:32.214Z,32.72
2023-01-07T05:06:33.659Z,32.70
2023-01-07T05:11:35.047Z,32.55
2023-01-07T05:16:36.483Z,32.73
2023-01-07T05:21:38.008Z,32.68
2023-01-07T05:26:39.407Z,32.81
2023-01-07T05:31:41.123Z,32.52
2023-01-07T05:36:42.529Z,32.47
2023-01-07T05:41:43.916Z,32.51
2023-01-07T05:46:45.298Z,32.58
2023-01-07T05:51:46.723Z,32.36
2023-01-07T05:56:48.123Z,32.41
2023-01-07T06:01:49.531Z,32.27
2023-01-07T06:06:50.927Z,32.36
2023-01-07T06:11:52.311Z,32.32
2023-01-07T06:16:53.768Z,32.48
2023-01-07T06:21:55.150Z,32.29
2023-01-07T06:26:56.560Z,32.22
2023-01-07T06:31:58.178Z,32.33
2023-01-07T06:36:59.666Z,32.37
2023-01-07T06:42:01.060Z,32.39
2023-01-07T06:47:02.475Z,32.16
2023-01-07T06:52:03.955Z,32.15
2023-01-07T06:57:05.393Z,32.27
2023-01-07T07:02:06.938Z,32.22
2023-01-07T07:07:08.338Z,32.43
2023-01-07T07:12:09.853Z,32.09
2023-01-07T07:17:11.305Z,32.31
2023-01-07T07:22:12.689Z,32.23
2023-01-07T07:27:14.153Z,32.72
2023-01-07T07:32:15.548Z,32.45
2023-01-07T07:37:16.944Z,32.55
2023-01-07T07:42:18.318Z,32.78
2023-01-07T07:47:19.690Z,32.75
2023-01-07T07:52:21.075Z,32.87
2023-01-07T07:57:22.492Z,32.90
2023-01-07T08:02:23.883Z,32.69
2023-01-07T08:07:32.506Z,32.94
2023-01-07T08:12:38.706Z,32.78
2023-01-07T08:17:40.139Z,32.80
2023-01-07T08:22:41.566Z,32.78
2023-01-07T08:27:42.945Z,32.49
2023-01-07T08:32:44.327Z,32.76
2023-01-07T08:37:45.727Z,32.71
2023-01-07T08:42:47.104Z,32.83
2023-01-07T08:47:48.537Z,32.59
2023-01-07T08:52:49.913Z,32.59
2023-01-07T08:57:53.865Z,32.56
2023-01-07T09:02:55.272Z,32.84
2023-01-07T09:07:57.452Z,32.73
2023-01-07T09:12:58.834Z,32.55
2023-01-07T09:18:03.368Z,32.49
2023-01-07T09:23:04.779Z,32.82
2023-01-07T09:28:06.178Z,32.97
2023-01-07T09:33:07.558Z,32.78
2023-01-07T09:38:08.942Z,32.80
2023-01-07T09:43:25.295Z,32.70
2023-01-07T09:48:35.349Z,33.10
2023-01-07T09:53:45.967Z,33.23
2023-01-07T09:58:48.367Z,33.11
2023-01-07T10:04:17.529Z,33.05
2023-01-07T10:09:37.658Z,32.91
2023-01-07T10:14:51.632Z,33.01
2023-01-07T10:19:56.451Z,33.18
2023-01-07T10:25:00.623Z,33.13
2023-01-07T10:30:03.500Z,33.04
2023-01-07T10:35:07.310Z,33.06
2023-01-07T10:40:41.779Z,33.27
2023-01-07T10:46:10.294Z,33.61
2023-01-07T10:51:30.657Z,33.40
2023-01-07T10:56:37.197Z,33.53
2023-01-07T11:01:39.495Z,33.58
2023-01-07T11:06:44.964Z,33.92
2023-01-07T11:11:46.376Z,33.88
2023-01-07T11:17:02.555Z,33.77
2023-01-07T11:22:03.982Z,33.80
2023-01-07T11:27:13.639Z,34.11
2023-01-07T11:32:21.132Z,34.31
2023-01-07T11:37:44.120Z,34.25
2023-01-07T11:42:51.487Z,34.33
2023-01-07T11:48:00.289Z,34.18
2023-01-07T11:53:07.714Z,34.11
2023-01-07T11:58:28.191Z,33.95
2023-01-07T12:03:30.661Z,33.77
2023-01-07T12:08:32.042Z,33.51
2023-01-07T12:13:34.241Z,33.06
2023-01-07T12:19:03.525Z,33.10
2023-01-07T12:24:15.549Z,33.06
2023-01-07T12:29:39.186Z,32.93
2023-01-07T12:35:15.048Z,33.29
2023-01-07T12:40:27.437Z,33.32
2023-01-07T12:46:00.803Z,33.32
2023-01-07T12:51:04.627Z,33.52
2023-01-07T12:56:20.871Z,33.59
2023-01-07T13:01:31.729Z,33.18
2023-01-07T13:06:33.012Z,32.84
2023-01-07T13:11:54.108Z,32.97
2023-01-07T13:16:59.824Z,33.02
2023-01-07T13:22:01.084Z,33.05
2023-01-07T13:27:18.795Z,32.76
2023-01-07T13:32:36.114Z,32.63
2023-01-07T13:37:40.382Z,32.14
2023-01-07T13:42:48.922Z,32.03
2023-01-07T13:47:54.571Z,32.14
2023-01-07T13:53:02.490Z,32.11
2023-01-07T13:58:33.582Z,31.52
2023-01-07T14:03:45.061Z,31.51
2023-01-07T14:08:57.582Z,31.79
2023-01-07T14:14:29.628Z,31.48
2023-01-07T14:19:43.348Z,31.82
2023-01-07T14:24:52.145Z,31.52
2023-01-07T14:29:56.508Z,31.45
2023-01-07T14:35:01.981Z,31.53
2023-01-07T14:40:34.389Z,31.83
2023-01-07T14:45:41.852Z,31.91
2023-01-07T14:50:49.060Z,31.54
2023-01-07T14:56:12.197Z,31.23
2023-01-07T15:01:43.484Z,31.29
2023-01-07T15:06:44.971Z,31.23
2023-01-07T15:12:05.053Z,31.25
2023-01-07T15:17:06.877Z,31.15
2023-01-07T15:22:14.240Z,31.09
2023-01-07T15:27:21.133Z,31.01
2023-01-07T15:32:40.981Z,31.20
2023-01-07T15:37:49.907Z,31.17
2023-01-07T15:42:52.967Z,31.20
2023-01-07T15:48:04.952Z,30.98
2023-01-07T15:53:12.715Z,31.35
2023-01-07T15:58:34.867Z,31.53
2023-01-07T16:03:37.737Z,31.53
2023-01-07T16:08:39.115Z,31.40
2023-01-07T16:13:40.597Z,31.41
2023-01-07T16:18:42.535Z,31.41
2023-01-07T16:23:45.625Z,31.51
2023-01-07T16:28:58.914Z,31.65
2023-01-07T16:34:00.462Z,31.40
2023-01-07T16:39:05.910Z,31.29
2023-01-07T16:44:10.290Z,31.59
2023-01-07T16:49:11.501Z,31.77
2023-01-07T16:54:24.875Z,31.56
2023-01-07T16:59:28.613Z,31.56
2023-01-07T17:04:30.225Z,31.46
2023-01-07T17:09:35.351Z,31.51
2023-01-07T17:14:49.132Z,31.32
2023-01-07T17:19:57.247Z,31.31
2023-01-07T17:25:12.063Z,31.14
2023-01-07T17:30:18.353Z,31.35
2023-01-07T17:35:21.314Z,30.97
2023-01-07T17:40:22.714Z,31.02
2023-01-07T17:45:24.132Z,30.73
2023-01-07T17:50:35.841Z,30.70
2023-01-07T17:55:37.228Z,30.89
2023-01-07T18:00:40.765Z,30.85
2023-01-07T18:05:42.204Z,30.67
2023-01-07T18:11:02.165Z,30.50
2023-01-07T18:16:03.656Z,30.45
2023-01-07T18:21:05.208Z,30.56
2023-01-07T18:26:06.632Z,30.55
2023-01-07T18:31:08.206Z,30.39
2023-01-07T18:36:10.466Z,30.21
2023-01-07T18:41:11.858Z,30.41
2023-01-07T18:46:13.576Z,30.41
2023-01-07T18:51:15.706Z,30.31
2023-01-07T18:56:17.165Z,30.08
2023-01-07T19:01:18.697Z,30.09
2023-01-07T19:06:20.179Z,30.18
2023-01-07T19:11:21.582Z,30.10
2023-01-07T19:16:23.100Z,29.95
2023-01-07T19:21:26.474Z,30.06
2023-01-07T19:26:28.166Z,29.92
2023-01-07T19:31:29.604Z,30.15
2023-01-07T19:36:31.453Z,29.76
2023-01-07T19:41:34.003Z,29.61
2023-01-07T19:46:37.474Z,29.74
2023-01-07T19:51:39.682Z,29.85
2023-01-07T19:56:41.191Z,29.76
2023-01-07T20:01:44.507Z,29.63
2023-01-07T20:06:47.296Z,29.63
2023-01-07T20:11:48.874Z,29.80
2023-01-07T20:16:50.429Z,29.79
2023-01-07T20:21:51.834Z,29.48
2023-01-07T20:26:54.697Z,29.46
2023-01-07T20:31:56.368Z,29.50
2023-01-07T20:36:57.844Z,29.71
2023-01-07T20:41:59.235Z,29.29
2023-01-07T20:47:01.093Z,29.20
2023-01-07T20:52:02.488Z,29.22
2023-01-07T20:57:04.062Z,29.05
2023-01-07T21:02:05.767Z,29.28
2023-01-07T21:07:07.310Z,29.16
2023-01-07T21:12:08.707Z,29.18
2023-01-07T21:17:10.080Z,29.21
2023-01-07T21:22:11.471Z,29.01
2023-01-07T21:27:12.847Z,29.00
2023-01-07T21:32:14.218Z,29.04
2023-01-07T21:37:15.654Z,28.79
2023-01-07T21:42:17.087Z,28.99
2023-01-07T21:47:18.473Z,29.16
2023-01-07T21:52:19.850Z,29.26
2023-01-07T21:57:21.301Z,29.05
2023-01-07T22:02:22.693Z,29.11
2023-01-07T22:07:24.150Z,29.19
2023-01-07T22:12:25.689Z,29.18
2023-01-07T22:17:27.124Z,29.22
2023-01-07T22:22:28.498Z,29.34
2023-01-07T22:27:29.870Z,29.49
2023-01-07T22:32:31.253Z,29.37
2023-01-07T22:37:32.700Z,29.37
2023-01-07T22:42:39.367Z,29.29
2023-01-07T22:47:42.162Z,29.41
2023-01-07T22:52:43.593Z,29.41
2023-01-07T22:57:44.959Z,29.21
2023-01-07T23:02:46.361Z,29.26
2023-01-07T23:07:47.750Z,29.67
2023-01-07T23:12:49.135Z,29.57
2023-01-07T23:17:50.545Z,29.43
2023-01-07T23:22:51.935Z,29.26
2023-01-07T23:27:53.315Z,29.37
2023-01-07T23:32:54.695Z,29.21
2023-01-07T23:37:56.114Z,29.27
2023-01-07T23:42:57.858Z,29.20
2023-01-07T23:47:59.269Z,29.27
2023-01-07T23:53:00.681Z,29.38
2023-01-07T23:58:02.746Z,29.27
